sensor_id;sensor_type;location;lat;lon;timestamp;P1;durP1;ratioP1;P2;durP2;ratioP2
4744;SDS011;2386;42.138;24.746;2023-03-09T00:02:16;189.90;;;92.37;;
4744;SDS011;2386;42.138;24.746;2023-03-09T00:04:41;190.80;;;87.70;;
4744;SDS011;2386;42.138;24.746;2023-03-09T00:07:06;203.07;;;94.33;;
4744;SDS011;2386;42.138;24.746;2023-03-09T00:09:32;204.40;;;94.60;;
4744;SDS011;2386;42.138;24.746;2023-03-09T00:11:57;192.20;;;92.03;;
4744;SDS011;2386;42.138;24.746;2023-03-09T00:14:23;180.70;;;89.00;;
4744;SDS011;2386;42.138;24.746;2023-03-09T00:16:49;198.37;;;93.90;;
4744;SDS011;2386;42.138;24.746;2023-03-09T00:19:15;200.27;;;96.33;;
4744;SDS011;2386;42.138;24.746;2023-03-09T00:21:46;187.70;;;91.17;;
4744;SDS011;2386;42.138;24.746;2023-03-09T00:24:17;187.60;;;87.60;;
4744;SDS011;2386;42.138;24.746;2023-03-09T00:26:49;183.40;;;83.00;;
4744;SDS011;2386;42.138;24.746;2023-03-09T00:29:16;181.00;;;88.80;;
4744;SDS011;2386;42.138;24.746;2023-03-09T00:31:42;183.87;;;87.27;;
4744;SDS011;2386;42.138;24.746;2023-03-09T00:34:08;202.17;;;92.97;;
4744;SDS011;2386;42.138;24.746;2023-03-09T00:36:35;171.50;;;84.47;;
4744;SDS011;2386;42.138;24.746;2023-03-09T00:39:01;185.30;;;86.53;;
4744;SDS011;2386;42.138;24.746;2023-03-09T00:41:27;180.47;;;85.17;;
4744;SDS011;2386;42.138;24.746;2023-03-09T00:43:55;177.93;;;84.37;;
4744;SDS011;2386;42.138;24.746;2023-03-09T00:46:21;181.63;;;84.07;;
4744;SDS011;2386;42.138;24.746;2023-03-09T00:48:46;192.77;;;90.87;;
4744;SDS011;2386;42.138;24.746;2023-03-09T00:51:12;188.33;;;85.47;;
4744;SDS011;2386;42.138;24.746;2023-03-09T00:53:38;192.63;;;89.33;;
4744;SDS011;2386;42.138;24.746;2023-03-09T00:56:04;187.70;;;85.07;;
4744;SDS011;2386;42.138;24.746;2023-03-09T00:58:31;190.53;;;90.27;;
4744;SDS011;2386;42.138;24.746;2023-03-09T01:00:57;178.93;;;84.47;;
4744;SDS011;2386;42.138;24.746;2023-03-09T01:03:23;190.77;;;88.17;;
4744;SDS011;2386;42.138;24.746;2023-03-09T01:05:48;183.53;;;86.20;;
4744;SDS011;2386;42.138;24.746;2023-03-09T01:08:14;183.73;;;83.77;;
4744;SDS011;2386;42.138;24.746;2023-03-09T01:10:40;178.33;;;82.53;;
4744;SDS011;2386;42.138;24.746;2023-03-09T01:13:07;180.43;;;85.17;;
4744;SDS011;2386;42.138;24.746;2023-03-09T01:15:34;185.10;;;84.50;;
4744;SDS011;2386;42.138;24.746;2023-03-09T01:18:00;188.37;;;85.60;;
4744;SDS011;2386;42.138;24.746;2023-03-09T01:20:25;188.00;;;85.43;;
4744;SDS011;2386;42.138;24.746;2023-03-09T01:22:51;188.20;;;84.67;;
4744;SDS011;2386;42.138;24.746;2023-03-09T01:25:16;192.27;;;87.17;;
4744;SDS011;2386;42.138;24.746;2023-03-09T01:27:42;179.73;;;83.97;;
4744;SDS011;2386;42.138;24.746;2023-03-09T01:30:07;178.10;;;83.67;;
4744;SDS011;2386;42.138;24.746;2023-03-09T01:32:35;183.67;;;82.77;;
4744;SDS011;2386;42.138;24.746;2023-03-09T01:35:00;170.83;;;79.20;;
4744;SDS011;2386;42.138;24.746;2023-03-09T01:37:26;185.20;;;83.00;;
4744;SDS011;2386;42.138;24.746;2023-03-09T01:39:51;194.93;;;85.70;;
4744;SDS011;2386;42.138;24.746;2023-03-09T01:42:16;201.27;;;88.77;;
4744;SDS011;2386;42.138;24.746;2023-03-09T01:44:42;180.73;;;81.17;;
4744;SDS011;2386;42.138;24.746;2023-03-09T01:47:07;186.53;;;81.87;;
4744;SDS011;2386;42.138;24.746;2023-03-09T01:52:17;196.03;;;86.27;;
4744;SDS011;2386;42.138;24.746;2023-03-09T01:54:50;192.03;;;83.40;;
4744;SDS011;2386;42.138;24.746;2023-03-09T01:59:55;200.97;;;86.20;;
4744;SDS011;2386;42.138;24.746;2023-03-09T02:02:25;189.10;;;80.93;;
4744;SDS011;2386;42.138;24.746;2023-03-09T02:04:56;201.50;;;86.87;;
4744;SDS011;2386;42.138;24.746;2023-03-09T02:07:25;190.63;;;82.50;;
4744;SDS011;2386;42.138;24.746;2023-03-09T02:09:57;200.47;;;86.67;;
4744;SDS011;2386;42.138;24.746;2023-03-09T02:12:46;191.40;;;81.93;;
4744;SDS011;2386;42.138;24.746;2023-03-09T02:15:18;201.27;;;87.77;;
4744;SDS011;2386;42.138;24.746;2023-03-09T02:17:45;200.97;;;88.53;;
4744;SDS011;2386;42.138;24.746;2023-03-09T02:23:26;209.10;;;86.13;;
4744;SDS011;2386;42.138;24.746;2023-03-09T02:26:05;189.97;;;82.50;;
4744;SDS011;2386;42.138;24.746;2023-03-09T02:28:33;204.30;;;89.87;;
4744;SDS011;2386;42.138;24.746;2023-03-09T02:30:59;163.47;;;77.47;;
4744;SDS011;2386;42.138;24.746;2023-03-09T02:33:26;169.67;;;80.27;;
4744;SDS011;2386;42.138;24.746;2023-03-09T02:35:56;179.23;;;84.63;;
4744;SDS011;2386;42.138;24.746;2023-03-09T02:38:23;182.87;;;85.43;;
4744;SDS011;2386;42.138;24.746;2023-03-09T02:40:49;175.23;;;83.17;;
4744;SDS011;2386;42.138;24.746;2023-03-09T02:43:17;188.43;;;85.47;;
4744;SDS011;2386;42.138;24.746;2023-03-09T02:45:47;197.60;;;90.47;;
4744;SDS011;2386;42.138;24.746;2023-03-09T02:48:13;174.03;;;82.00;;
4744;SDS011;2386;42.138;24.746;2023-03-09T02:50:39;189.37;;;88.03;;
4744;SDS011;2386;42.138;24.746;2023-03-09T02:53:04;186.57;;;84.07;;
4744;SDS011;2386;42.138;24.746;2023-03-09T02:55:30;179.43;;;83.20;;
4744;SDS011;2386;42.138;24.746;2023-03-09T02:57:55;182.43;;;83.77;;
4744;SDS011;2386;42.138;24.746;2023-03-09T03:00:21;186.27;;;85.70;;
4744;SDS011;2386;42.138;24.746;2023-03-09T03:02:47;183.70;;;83.43;;
4744;SDS011;2386;42.138;24.746;2023-03-09T03:05:12;191.40;;;88.13;;
4744;SDS011;2386;42.138;24.746;2023-03-09T03:07:38;176.13;;;83.50;;
4744;SDS011;2386;42.138;24.746;2023-03-09T03:10:04;188.80;;;84.90;;
4744;SDS011;2386;42.138;24.746;2023-03-09T03:12:30;184.30;;;87.37;;
4744;SDS011;2386;42.138;24.746;2023-03-09T03:14:55;190.37;;;88.07;;
4744;SDS011;2386;42.138;24.746;2023-03-09T03:17:20;186.57;;;84.70;;
4744;SDS011;2386;42.138;24.746;2023-03-09T03:19:46;181.30;;;82.67;;
4744;SDS011;2386;42.138;24.746;2023-03-09T03:22:11;188.37;;;85.40;;
4744;SDS011;2386;42.138;24.746;2023-03-09T03:24:39;189.37;;;87.17;;
4744;SDS011;2386;42.138;24.746;2023-03-09T03:27:05;185.90;;;86.40;;
4744;SDS011;2386;42.138;24.746;2023-03-09T03:29:31;180.07;;;82.47;;
4744;SDS011;2386;42.138;24.746;2023-03-09T03:31:57;175.27;;;78.67;;
4744;SDS011;2386;42.138;24.746;2023-03-09T03:34:23;188.07;;;84.43;;
4744;SDS011;2386;42.138;24.746;2023-03-09T03:36:48;174.03;;;79.60;;
4744;SDS011;2386;42.138;24.746;2023-03-09T03:39:14;189.47;;;85.33;;
4744;SDS011;2386;42.138;24.746;2023-03-09T03:41:39;176.50;;;83.47;;
4744;SDS011;2386;42.138;24.746;2023-03-09T03:44:05;158.07;;;75.17;;
4744;SDS011;2386;42.138;24.746;2023-03-09T03:46:30;167.87;;;76.43;;
4744;SDS011;2386;42.138;24.746;2023-03-09T03:48:56;172.03;;;80.87;;
4744;SDS011;2386;42.138;24.746;2023-03-09T03:51:21;181.67;;;82.37;;
4744;SDS011;2386;42.138;24.746;2023-03-09T03:53:47;189.13;;;81.83;;
4744;SDS011;2386;42.138;24.746;2023-03-09T03:56:12;189.00;;;84.43;;
4744;SDS011;2386;42.138;24.746;2023-03-09T03:58:38;175.63;;;79.10;;
4744;SDS011;2386;42.138;24.746;2023-03-09T04:01:04;168.80;;;72.53;;
4744;SDS011;2386;42.138;24.746;2023-03-09T04:03:29;183.60;;;83.17;;
4744;SDS011;2386;42.138;24.746;2023-03-09T04:05:55;187.30;;;81.33;;
4744;SDS011;2386;42.138;24.746;2023-03-09T04:08:20;186.03;;;81.70;;
4744;SDS011;2386;42.138;24.746;2023-03-09T04:10:46;174.33;;;78.53;;
4744;SDS011;2386;42.138;24.746;2023-03-09T04:13:11;170.67;;;78.77;;
4744;SDS011;2386;42.138;24.746;2023-03-09T04:15:37;179.07;;;78.97;;
4744;SDS011;2386;42.138;24.746;2023-03-09T04:18:02;180.93;;;79.50;;
4744;SDS011;2386;42.138;24.746;2023-03-09T04:20:28;165.83;;;75.47;;
4744;SDS011;2386;42.138;24.746;2023-03-09T04:22:53;176.77;;;80.17;;
4744;SDS011;2386;42.138;24.746;2023-03-09T04:25:19;189.73;;;80.30;;
4744;SDS011;2386;42.138;24.746;2023-03-09T04:27:44;167.70;;;73.50;;
4744;SDS011;2386;42.138;24.746;2023-03-09T04:30:10;173.57;;;78.67;;
4744;SDS011;2386;42.138;24.746;2023-03-09T04:32:36;172.10;;;77.60;;
4744;SDS011;2386;42.138;24.746;2023-03-09T04:35:02;175.93;;;78.97;;
4744;SDS011;2386;42.138;24.746;2023-03-09T04:37:28;164.57;;;75.17;;
4744;SDS011;2386;42.138;24.746;2023-03-09T04:39:53;162.30;;;72.73;;
4744;SDS011;2386;42.138;24.746;2023-03-09T04:42:19;155.83;;;69.30;;
4744;SDS011;2386;42.138;24.746;2023-03-09T04:44:44;157.97;;;71.37;;
4744;SDS011;2386;42.138;24.746;2023-03-09T04:47:12;173.23;;;73.47;;
4744;SDS011;2386;42.138;24.746;2023-03-09T04:49:39;145.20;;;67.13;;
4744;SDS011;2386;42.138;24.746;2023-03-09T04:52:05;166.37;;;71.13;;
4744;SDS011;2386;42.138;24.746;2023-03-09T04:54:31;163.10;;;71.07;;
4744;SDS011;2386;42.138;24.746;2023-03-09T04:56:56;170.63;;;75.87;;
4744;SDS011;2386;42.138;24.746;2023-03-09T04:59:21;159.40;;;67.57;;
4744;SDS011;2386;42.138;24.746;2023-03-09T05:01:47;182.83;;;76.10;;
4744;SDS011;2386;42.138;24.746;2023-03-09T05:04:12;161.80;;;71.83;;
4744;SDS011;2386;42.138;24.746;2023-03-09T05:06:38;153.97;;;67.37;;
4744;SDS011;2386;42.138;24.746;2023-03-09T05:09:03;151.00;;;66.17;;
4744;SDS011;2386;42.138;24.746;2023-03-09T05:11:30;152.10;;;64.73;;
4744;SDS011;2386;42.138;24.746;2023-03-09T05:13:56;159.70;;;71.80;;
4744;SDS011;2386;42.138;24.746;2023-03-09T05:16:21;162.63;;;69.63;;
4744;SDS011;2386;42.138;24.746;2023-03-09T05:18:50;165.93;;;70.17;;
4744;SDS011;2386;42.138;24.746;2023-03-09T05:21:16;152.87;;;70.27;;
4744;SDS011;2386;42.138;24.746;2023-03-09T05:23:42;157.57;;;61.80;;
4744;SDS011;2386;42.138;24.746;2023-03-09T05:26:07;178.33;;;68.50;;
4744;SDS011;2386;42.138;24.746;2023-03-09T05:28:36;152.10;;;68.50;;
4744;SDS011;2386;42.138;24.746;2023-03-09T05:31:13;171.97;;;66.97;;
4744;SDS011;2386;42.138;24.746;2023-03-09T05:33:39;160.43;;;68.13;;
4744;SDS011;2386;42.138;24.746;2023-03-09T05:36:14;182.20;;;71.90;;
4744;SDS011;2386;42.138;24.746;2023-03-09T05:38:50;181.93;;;69.67;;
4744;SDS011;2386;42.138;24.746;2023-03-09T05:41:16;167.53;;;69.70;;
4744;SDS011;2386;42.138;24.746;2023-03-09T05:43:42;149.47;;;69.37;;
4744;SDS011;2386;42.138;24.746;2023-03-09T05:46:11;165.83;;;72.07;;
4744;SDS011;2386;42.138;24.746;2023-03-09T05:48:39;154.60;;;67.30;;
4744;SDS011;2386;42.138;24.746;2023-03-09T05:51:04;150.50;;;69.17;;
4744;SDS011;2386;42.138;24.746;2023-03-09T05:53:32;163.53;;;71.43;;
4744;SDS011;2386;42.138;24.746;2023-03-09T05:55:57;165.00;;;71.80;;
4744;SDS011;2386;42.138;24.746;2023-03-09T05:58:23;147.47;;;69.10;;
4744;SDS011;2386;42.138;24.746;2023-03-09T06:00:49;154.97;;;70.57;;
4744;SDS011;2386;42.138;24.746;2023-03-09T06:03:17;172.00;;;76.70;;
4744;SDS011;2386;42.138;24.746;2023-03-09T06:05:43;157.77;;;71.00;;
4744;SDS011;2386;42.138;24.746;2023-03-09T06:08:08;156.60;;;72.17;;
4744;SDS011;2386;42.138;24.746;2023-03-09T06:10:33;165.87;;;76.57;;
4744;SDS011;2386;42.138;24.746;2023-03-09T06:12:59;156.63;;;76.17;;
4744;SDS011;2386;42.138;24.746;2023-03-09T06:15:24;168.87;;;79.70;;
4744;SDS011;2386;42.138;24.746;2023-03-09T06:17:49;167.77;;;78.57;;
4744;SDS011;2386;42.138;24.746;2023-03-09T06:20:15;168.17;;;81.77;;
4744;SDS011;2386;42.138;24.746;2023-03-09T06:22:40;179.00;;;78.87;;
4744;SDS011;2386;42.138;24.746;2023-03-09T06:25:08;184.17;;;85.97;;
4744;SDS011;2386;42.138;24.746;2023-03-09T06:27:34;195.37;;;88.97;;
4744;SDS011;2386;42.138;24.746;2023-03-09T06:30:00;187.57;;;87.40;;
4744;SDS011;2386;42.138;24.746;2023-03-09T06:32:25;168.87;;;80.90;;
4744;SDS011;2386;42.138;24.746;2023-03-09T06:34:51;191.57;;;88.60;;
4744;SDS011;2386;42.138;24.746;2023-03-09T06:37:16;175.97;;;82.97;;
4744;SDS011;2386;42.138;24.746;2023-03-09T06:39:41;173.47;;;87.23;;
4744;SDS011;2386;42.138;24.746;2023-03-09T06:42:07;172.70;;;86.17;;
4744;SDS011;2386;42.138;24.746;2023-03-09T06:44:32;199.77;;;96.07;;
4744;SDS011;2386;42.138;24.746;2023-03-09T06:46:57;182.63;;;89.97;;
4744;SDS011;2386;42.138;24.746;2023-03-09T06:49:23;186.57;;;96.70;;
4744;SDS011;2386;42.138;24.746;2023-03-09T06:51:48;191.33;;;98.90;;
4744;SDS011;2386;42.138;24.746;2023-03-09T06:54:14;239.13;;;119.17;;
4744;SDS011;2386;42.138;24.746;2023-03-09T06:56:40;201.17;;;99.70;;
4744;SDS011;2386;42.138;24.746;2023-03-09T06:59:05;189.93;;;97.93;;
4744;SDS011;2386;42.138;24.746;2023-03-09T07:01:31;195.97;;;98.37;;
4744;SDS011;2386;42.138;24.746;2023-03-09T07:03:56;197.90;;;101.90;;
4744;SDS011;2386;42.138;24.746;2023-03-09T07:06:22;201.80;;;99.73;;
4744;SDS011;2386;42.138;24.746;2023-03-09T07:08:47;206.37;;;99.70;;
4744;SDS011;2386;42.138;24.746;2023-03-09T07:11:13;207.23;;;107.00;;
4744;SDS011;2386;42.138;24.746;2023-03-09T07:13:38;197.33;;;100.80;;
4744;SDS011;2386;42.138;24.746;2023-03-09T07:16:03;204.30;;;108.13;;
4744;SDS011;2386;42.138;24.746;2023-03-09T07:18:30;233.07;;;113.93;;
4744;SDS011;2386;42.138;24.746;2023-03-09T07:20:57;216.40;;;110.03;;
4744;SDS011;2386;42.138;24.746;2023-03-09T07:23:24;216.53;;;109.50;;
4744;SDS011;2386;42.138;24.746;2023-03-09T07:29:05;216.93;;;106.93;;
4744;SDS011;2386;42.138;24.746;2023-03-09T07:31:30;213.80;;;106.07;;
4744;SDS011;2386;42.138;24.746;2023-03-09T07:33:56;229.13;;;109.80;;
4744;SDS011;2386;42.138;24.746;2023-03-09T07:36:23;184.77;;;98.60;;
4744;SDS011;2386;42.138;24.746;2023-03-09T07:38:49;199.43;;;102.57;;
4744;SDS011;2386;42.138;24.746;2023-03-09T07:41:16;219.53;;;110.50;;
4744;SDS011;2386;42.138;24.746;2023-03-09T07:43:42;214.73;;;107.27;;
4744;SDS011;2386;42.138;24.746;2023-03-09T07:46:11;208.23;;;111.20;;
4744;SDS011;2386;42.138;24.746;2023-03-09T07:48:39;182.90;;;102.60;;
4744;SDS011;2386;42.138;24.746;2023-03-09T07:51:05;222.60;;;115.87;;
4744;SDS011;2386;42.138;24.746;2023-03-09T07:53:33;213.37;;;113.03;;
4744;SDS011;2386;42.138;24.746;2023-03-09T07:56:00;212.27;;;116.83;;
4744;SDS011;2386;42.138;24.746;2023-03-09T07:58:29;230.10;;;120.03;;
4744;SDS011;2386;42.138;24.746;2023-03-09T08:00:55;219.80;;;117.10;;
4744;SDS011;2386;42.138;24.746;2023-03-09T08:03:21;216.90;;;118.30;;
4744;SDS011;2386;42.138;24.746;2023-03-09T08:05:47;206.97;;;113.43;;
4744;SDS011;2386;42.138;24.746;2023-03-09T08:08:12;210.47;;;110.03;;
4744;SDS011;2386;42.138;24.746;2023-03-09T08:10:38;218.40;;;117.53;;
4744;SDS011;2386;42.138;24.746;2023-03-09T08:13:05;223.13;;;114.77;;
4744;SDS011;2386;42.138;24.746;2023-03-09T08:15:30;227.40;;;120.20;;
4744;SDS011;2386;42.138;24.746;2023-03-09T08:17:55;229.97;;;116.07;;
4744;SDS011;2386;42.138;24.746;2023-03-09T08:20:21;237.67;;;118.47;;
4744;SDS011;2386;42.138;24.746;2023-03-09T08:22:46;229.67;;;124.33;;
4744;SDS011;2386;42.138;24.746;2023-03-09T08:25:12;215.03;;;119.27;;
4744;SDS011;2386;42.138;24.746;2023-03-09T08:27:38;241.00;;;130.57;;
4744;SDS011;2386;42.138;24.746;2023-03-09T08:30:08;322.30;;;191.63;;
4744;SDS011;2386;42.138;24.746;2023-03-09T08:32:35;241.77;;;131.83;;
4744;SDS011;2386;42.138;24.746;2023-03-09T08:35:00;243.20;;;128.73;;
4744;SDS011;2386;42.138;24.746;2023-03-09T08:37:26;241.90;;;136.07;;
4744;SDS011;2386;42.138;24.746;2023-03-09T08:39:51;231.60;;;135.07;;
4744;SDS011;2386;42.138;24.746;2023-03-09T08:42:17;216.47;;;133.30;;
4744;SDS011;2386;42.138;24.746;2023-03-09T08:44:43;238.17;;;142.87;;
4744;SDS011;2386;42.138;24.746;2023-03-09T08:47:08;257.67;;;145.30;;
4744;SDS011;2386;42.138;24.746;2023-03-09T08:49:34;259.30;;;148.50;;
4744;SDS011;2386;42.138;24.746;2023-03-09T08:52:02;251.37;;;146.43;;
4744;SDS011;2386;42.138;24.746;2023-03-09T08:54:28;246.70;;;146.50;;
4744;SDS011;2386;42.138;24.746;2023-03-09T08:56:53;272.97;;;157.43;;
4744;SDS011;2386;42.138;24.746;2023-03-09T08:59:18;280.90;;;167.60;;
4744;SDS011;2386;42.138;24.746;2023-03-09T09:01:44;253.47;;;156.83;;
4744;SDS011;2386;42.138;24.746;2023-03-09T09:04:09;251.87;;;156.93;;
4744;SDS011;2386;42.138;24.746;2023-03-09T09:06:35;252.70;;;162.20;;
4744;SDS011;2386;42.138;24.746;2023-03-09T09:09:00;255.90;;;159.07;;
4744;SDS011;2386;42.138;24.746;2023-03-09T09:11:25;252.90;;;161.43;;
4744;SDS011;2386;42.138;24.746;2023-03-09T09:13:51;258.57;;;172.50;;
4744;SDS011;2386;42.138;24.746;2023-03-09T09:16:17;274.07;;;170.03;;
4744;SDS011;2386;42.138;24.746;2023-03-09T09:18:43;257.80;;;163.67;;
4744;SDS011;2386;42.138;24.746;2023-03-09T09:21:09;262.80;;;165.97;;
4744;SDS011;2386;42.138;24.746;2023-03-09T09:23:37;269.10;;;173.60;;
4744;SDS011;2386;42.138;24.746;2023-03-09T09:26:04;262.17;;;162.33;;
4744;SDS011;2386;42.138;24.746;2023-03-09T09:28:30;275.57;;;166.23;;
4744;SDS011;2386;42.138;24.746;2023-03-09T09:30:57;268.47;;;168.23;;
4744;SDS011;2386;42.138;24.746;2023-03-09T09:33:24;268.07;;;173.17;;
4744;SDS011;2386;42.138;24.746;2023-03-09T09:35:55;263.97;;;173.07;;
4744;SDS011;2386;42.138;24.746;2023-03-09T09:38:25;252.57;;;171.90;;
4744;SDS011;2386;42.138;24.746;2023-03-09T09:40:53;401.43;;;262.90;;
4744;SDS011;2386;42.138;24.746;2023-03-09T09:43:21;281.33;;;184.43;;
4744;SDS011;2386;42.138;24.746;2023-03-09T09:45:49;254.17;;;173.80;;
4744;SDS011;2386;42.138;24.746;2023-03-09T09:48:16;274.63;;;186.17;;
4744;SDS011;2386;42.138;24.746;2023-03-09T09:53:27;289.90;;;191.87;;
4744;SDS011;2386;42.138;24.746;2023-03-09T09:56:12;256.03;;;184.17;;
4744;SDS011;2386;42.138;24.746;2023-03-09T10:01:39;264.83;;;186.90;;
4744;SDS011;2386;42.138;24.746;2023-03-09T10:04:18;272.50;;;193.47;;
4744;SDS011;2386;42.138;24.746;2023-03-09T10:09:30;266.83;;;192.13;;
4744;SDS011;2386;42.138;24.746;2023-03-09T10:12:00;246.33;;;188.43;;
4744;SDS011;2386;42.138;24.746;2023-03-09T10:14:32;260.10;;;181.60;;
4744;SDS011;2386;42.138;24.746;2023-03-09T10:19:40;264.07;;;191.20;;
4744;SDS011;2386;42.138;24.746;2023-03-09T10:24:33;287.70;;;202.03;;
4744;SDS011;2386;42.138;24.746;2023-03-09T10:30:14;271.43;;;205.50;;
4744;SDS011;2386;42.138;24.746;2023-03-09T10:35:57;289.80;;;223.53;;
4744;SDS011;2386;42.138;24.746;2023-03-09T10:38:23;284.93;;;216.83;;
4744;SDS011;2386;42.138;24.746;2023-03-09T10:40:50;270.50;;;216.10;;
4744;SDS011;2386;42.138;24.746;2023-03-09T10:43:21;264.37;;;205.53;;
4744;SDS011;2386;42.138;24.746;2023-03-09T10:46:19;252.07;;;194.37;;
4744;SDS011;2386;42.138;24.746;2023-03-09T10:48:48;314.07;;;210.90;;
4744;SDS011;2386;42.138;24.746;2023-03-09T10:51:23;268.83;;;200.13;;
4744;SDS011;2386;42.138;24.746;2023-03-09T10:53:50;269.50;;;197.60;;
4744;SDS011;2386;42.138;24.746;2023-03-09T10:56:21;301.40;;;211.73;;
4744;SDS011;2386;42.138;24.746;2023-03-09T10:59:22;270.40;;;199.17;;
4744;SDS011;2386;42.138;24.746;2023-03-09T11:01:42;293.37;;;215.10;;
4744;SDS011;2386;42.138;24.746;2023-03-09T11:07:05;275.30;;;213.27;;
4744;SDS011;2386;42.138;24.746;2023-03-09T11:12:07;291.10;;;228.87;;
4744;SDS011;2386;42.138;24.746;2023-03-09T11:14:56;276.50;;;208.33;;
4744;SDS011;2386;42.138;24.746;2023-03-09T11:22:46;279.60;;;215.70;;
4744;SDS011;2386;42.138;24.746;2023-03-09T11:25:21;248.50;;;194.67;;
4744;SDS011;2386;42.138;24.746;2023-03-09T11:28:00;246.83;;;197.83;;
4744;SDS011;2386;42.138;24.746;2023-03-09T11:33:55;277.67;;;210.27;;
4744;SDS011;2386;42.138;24.746;2023-03-09T11:36:24;255.80;;;209.73;;
4744;SDS011;2386;42.138;24.746;2023-03-09T11:39:04;284.37;;;215.10;;
4744;SDS011;2386;42.138;24.746;2023-03-09T11:41:38;294.17;;;224.23;;
4744;SDS011;2386;42.138;24.746;2023-03-09T11:44:07;283.83;;;214.43;;
4744;SDS011;2386;42.138;24.746;2023-03-09T11:46:38;283.03;;;216.87;;
4744;SDS011;2386;42.138;24.746;2023-03-09T11:49:16;275.90;;;212.23;;
4744;SDS011;2386;42.138;24.746;2023-03-09T11:51:48;275.90;;;213.50;;
4744;SDS011;2386;42.138;24.746;2023-03-09T11:57:05;281.23;;;212.20;;
4744;SDS011;2386;42.138;24.746;2023-03-09T11:59:51;296.20;;;221.30;;
4744;SDS011;2386;42.138;24.746;2023-03-09T12:05:10;290.13;;;220.73;;
4744;SDS011;2386;42.138;24.746;2023-03-09T12:18:53;269.37;;;209.97;;
4744;SDS011;2386;42.138;24.746;2023-03-09T12:21:29;261.77;;;210.60;;
4744;SDS011;2386;42.138;24.746;2023-03-09T12:23:58;262.83;;;205.43;;
4744;SDS011;2386;42.138;24.746;2023-03-09T12:26:41;265.80;;;210.33;;
4744;SDS011;2386;42.138;24.746;2023-03-09T12:31:38;257.90;;;212.37;;
4744;SDS011;2386;42.138;24.746;2023-03-09T12:34:17;278.30;;;220.43;;
4744;SDS011;2386;42.138;24.746;2023-03-09T12:36:49;286.47;;;227.30;;
4744;SDS011;2386;42.138;24.746;2023-03-09T12:47:22;273.53;;;218.80;;
4744;SDS011;2386;42.138;24.746;2023-03-09T12:49:58;289.80;;;228.87;;
4744;SDS011;2386;42.138;24.746;2023-03-09T12:52:32;279.93;;;222.07;;
4744;SDS011;2386;42.138;24.746;2023-03-09T12:55:15;297.03;;;235.57;;
4744;SDS011;2386;42.138;24.746;2023-03-09T12:57:42;284.27;;;234.80;;
4744;SDS011;2386;42.138;24.746;2023-03-09T13:02:43;287.13;;;223.97;;
4744;SDS011;2386;42.138;24.746;2023-03-09T13:05:23;312.83;;;245.67;;
4744;SDS011;2386;42.138;24.746;2023-03-09T13:07:56;278.93;;;231.53;;
4744;SDS011;2386;42.138;24.746;2023-03-09T13:10:30;314.47;;;261.10;;
4744;SDS011;2386;42.138;24.746;2023-03-09T13:21:42;313.67;;;277.57;;
4744;SDS011;2386;42.138;24.746;2023-03-09T13:24:50;332.73;;;293.43;;
4744;SDS011;2386;42.138;24.746;2023-03-09T13:27:06;329.60;;;287.03;;
4744;SDS011;2386;42.138;24.746;2023-03-09T13:29:45;320.17;;;285.70;;
4744;SDS011;2386;42.138;24.746;2023-03-09T13:32:36;321.43;;;286.73;;
4744;SDS011;2386;42.138;24.746;2023-03-09T13:35:18;319.77;;;285.67;;
4744;SDS011;2386;42.138;24.746;2023-03-09T13:37:57;319.27;;;284.10;;
4744;SDS011;2386;42.138;24.746;2023-03-09T13:40:28;311.57;;;278.43;;
4744;SDS011;2386;42.138;24.746;2023-03-09T13:42:56;309.80;;;277.10;;
4744;SDS011;2386;42.138;24.746;2023-03-09T13:45:29;315.70;;;281.10;;
4744;SDS011;2386;42.138;24.746;2023-03-09T13:48:00;323.87;;;284.07;;
4744;SDS011;2386;42.138;24.746;2023-03-09T13:50:29;325.63;;;285.17;;
4744;SDS011;2386;42.138;24.746;2023-03-09T13:53:19;313.30;;;279.13;;
4744;SDS011;2386;42.138;24.746;2023-03-09T13:58:25;320.80;;;278.97;;
4744;SDS011;2386;42.138;24.746;2023-03-09T14:01:02;318.80;;;281.87;;
4744;SDS011;2386;42.138;24.746;2023-03-09T14:03:29;339.67;;;294.03;;
4744;SDS011;2386;42.138;24.746;2023-03-09T14:06:06;332.63;;;288.80;;
4744;SDS011;2386;42.138;24.746;2023-03-09T14:11:07;312.93;;;269.53;;
4744;SDS011;2386;42.138;24.746;2023-03-09T14:13:48;309.30;;;262.57;;
4744;SDS011;2386;42.138;24.746;2023-03-09T14:16:18;325.20;;;273.63;;
4744;SDS011;2386;42.138;24.746;2023-03-09T14:21:50;305.63;;;259.27;;
4744;SDS011;2386;42.138;24.746;2023-03-09T14:26:43;323.50;;;240.97;;
4744;SDS011;2386;42.138;24.746;2023-03-09T14:31:41;305.27;;;244.00;;
4744;SDS011;2386;42.138;24.746;2023-03-09T14:34:24;301.87;;;236.03;;
4744;SDS011;2386;42.138;24.746;2023-03-09T14:39:25;301.80;;;235.70;;
4744;SDS011;2386;42.138;24.746;2023-03-09T14:47:29;285.13;;;229.37;;
4744;SDS011;2386;42.138;24.746;2023-03-09T14:49:55;337.07;;;241.47;;
4744;SDS011;2386;42.138;24.746;2023-03-09T14:52:21;323.00;;;236.77;;
4744;SDS011;2386;42.138;24.746;2023-03-09T14:54:47;233.03;;;178.70;;
4744;SDS011;2386;42.138;24.746;2023-03-09T14:57:14;270.10;;;206.00;;
4744;SDS011;2386;42.138;24.746;2023-03-09T14:59:41;237.07;;;199.97;;
4744;SDS011;2386;42.138;24.746;2023-03-09T15:02:08;294.87;;;227.10;;
4744;SDS011;2386;42.138;24.746;2023-03-09T15:04:36;301.67;;;227.63;;
4744;SDS011;2386;42.138;24.746;2023-03-09T15:07:04;294.97;;;229.30;;
4744;SDS011;2386;42.138;24.746;2023-03-09T15:09:30;291.97;;;230.10;;
4744;SDS011;2386;42.138;24.746;2023-03-09T15:11:58;294.87;;;222.80;;
4744;SDS011;2386;42.138;24.746;2023-03-09T15:14:29;275.83;;;216.83;;
4744;SDS011;2386;42.138;24.746;2023-03-09T15:16:58;309.67;;;227.00;;
4744;SDS011;2386;42.138;24.746;2023-03-09T15:19:23;255.07;;;205.70;;
4744;SDS011;2386;42.138;24.746;2023-03-09T15:21:53;297.27;;;220.13;;
4744;SDS011;2386;42.138;24.746;2023-03-09T15:24:20;256.37;;;200.33;;
4744;SDS011;2386;42.138;24.746;2023-03-09T15:26:46;269.83;;;209.97;;
4744;SDS011;2386;42.138;24.746;2023-03-09T15:29:12;256.07;;;205.20;;
4744;SDS011;2386;42.138;24.746;2023-03-09T15:31:37;277.10;;;216.03;;
4744;SDS011;2386;42.138;24.746;2023-03-09T15:34:03;287.57;;;211.33;;
4744;SDS011;2386;42.138;24.746;2023-03-09T15:36:28;261.37;;;197.17;;
4744;SDS011;2386;42.138;24.746;2023-03-09T15:38:53;257.53;;;200.00;;
4744;SDS011;2386;42.138;24.746;2023-03-09T15:41:19;278.27;;;208.43;;
4744;SDS011;2386;42.138;24.746;2023-03-09T15:43:44;279.97;;;204.93;;
4744;SDS011;2386;42.138;24.746;2023-03-09T15:46:10;284.83;;;213.57;;
4744;SDS011;2386;42.138;24.746;2023-03-09T15:48:35;243.50;;;195.07;;
4744;SDS011;2386;42.138;24.746;2023-03-09T15:51:01;279.20;;;211.40;;
4744;SDS011;2386;42.138;24.746;2023-03-09T15:53:28;287.37;;;208.57;;
4744;SDS011;2386;42.138;24.746;2023-03-09T15:55:58;272.70;;;205.87;;
4744;SDS011;2386;42.138;24.746;2023-03-09T15:58:26;286.10;;;198.87;;
4744;SDS011;2386;42.138;24.746;2023-03-09T16:00:56;275.27;;;204.03;;
4744;SDS011;2386;42.138;24.746;2023-03-09T16:03:22;316.90;;;220.17;;
4744;SDS011;2386;42.138;24.746;2023-03-09T16:05:48;281.17;;;202.83;;
4744;SDS011;2386;42.138;24.746;2023-03-09T16:08:13;280.73;;;211.10;;